createdAt,value
2019-02-05T00:02:15.173Z,99.90
2019-02-05T00:04:45.151Z,99.90
2019-02-05T00:07:34.013Z,99.90
2019-02-05T00:10:09.838Z,99.90
2019-02-05T00:12:39.396Z,99.90
2019-02-05T00:15:09.489Z,99.90
2019-02-05T00:17:40.691Z,99.90
2019-02-05T00:20:11.026Z,99.90
2019-02-05T00:22:40.620Z,99.90
2019-02-05T00:25:11.056Z,99.90
2019-02-05T00:27:42.186Z,99.90
2019-02-05T00:30:15.604Z,99.90
2019-02-05T00:32:45.654Z,99.90
2019-02-05T00:35:15.564Z,99.90
2019-02-05T00:37:45.212Z,99.90
2019-02-05T00:40:17.063Z,99.90
2019-02-05T00:42:48.132Z,99.90
2019-02-05T00:45:19.885Z,99.90
2019-02-05T00:47:50.092Z,99.90
2019-02-05T00:50:20.888Z,99.90
2019-02-05T00:52:50.448Z,99.90
2019-02-05T00:55:21.781Z,99.90
2019-02-05T00:57:51.328Z,99.90
2019-02-05T01:00:26.093Z,99.90
2019-02-05T01:02:56.503Z,99.90
2019-02-05T01:05:45.336Z,99.90
2019-02-05T01:08:14.931Z,99.90
2019-02-05T01:10:44.890Z,99.90
2019-02-05T01:13:15.958Z,99.90
2019-02-05T01:15:45.702Z,99.90
2019-02-05T01:18:15.286Z,99.90
2019-02-05T01:20:46.357Z,99.90
2019-02-05T01:23:16.434Z,99.90
2019-02-05T01:25:46.010Z,99.90
2019-02-05T01:28:15.579Z,99.90
2019-02-05T01:30:45.189Z,99.90
2019-02-05T01:33:14.768Z,99.90
2019-02-05T01:35:44.315Z,99.90
2019-02-05T01:38:13.906Z,99.90
2019-02-05T01:40:43.558Z,99.90
2019-02-05T01:43:13.281Z,99.90
2019-02-05T01:45:43.247Z,99.90
2019-02-05T01:48:12.898Z,99.90
2019-02-05T01:50:42.457Z,99.90
2019-02-05T01:53:12.072Z,99.90
2019-02-05T01:55:41.721Z,99.90
2019-02-05T01:58:11.296Z,99.90
2019-02-05T02:00:41.084Z,99.90
2019-02-05T02:03:10.946Z,99.90
2019-02-05T02:05:40.954Z,99.90
2019-02-05T02:08:10.565Z,99.90
2019-02-05T02:10:40.212Z,99.90
2019-02-05T02:13:09.947Z,99.90
2019-02-05T02:15:39.572Z,99.90
2019-02-05T02:18:09.303Z,99.90
2019-02-05T02:20:39.194Z,99.90
2019-02-05T02:23:08.947Z,99.90
2019-02-05T02:25:38.605Z,99.90
2019-02-05T02:28:08.374Z,99.90
2019-02-05T02:30:39.492Z,99.90
2019-02-05T02:33:09.368Z,99.90
2019-02-05T02:35:39.110Z,99.90
2019-02-05T02:38:08.849Z,99.90
2019-02-05T02:40:41.337Z,99.90
2019-02-05T02:43:10.900Z,99.90
2019-02-05T02:45:40.573Z,99.90
2019-02-05T02:48:10.380Z,99.90
2019-02-05T02:50:40.143Z,99.90
2019-02-05T02:53:09.950Z,99.90
2019-02-05T02:55:58.888Z,99.90
2019-02-05T02:58:28.494Z,99.90
2019-02-05T03:00:58.001Z,99.90
2019-02-05T03:03:27.730Z,99.90
2019-02-05T03:05:57.504Z,99.90
2019-02-05T03:08:27.091Z,99.90
2019-02-05T03:10:56.826Z,99.90
2019-02-05T03:13:26.449Z,99.90
2019-02-05T03:15:56.382Z,99.90
2019-02-05T03:18:26.815Z,99.90
2019-02-05T03:20:56.421Z,99.90
2019-02-05T03:23:45.256Z,99.90
2019-02-05T03:26:14.861Z,99.90
2019-02-05T03:28:44.731Z,99.90
2019-02-05T03:31:14.288Z,99.90
2019-02-05T03:33:43.911Z,99.90
2019-02-05T03:36:13.499Z,99.90
2019-02-05T03:38:43.230Z,99.90
2019-02-05T03:41:12.836Z,99.90
2019-02-05T03:43:42.923Z,99.90
2019-02-05T03:46:13.143Z,99.90
2019-02-05T03:48:45.606Z,99.90
2019-02-05T03:51:19.663Z,99.90
2019-02-05T03:53:53.893Z,99.90
2019-02-05T03:56:33.946Z,99.90
2019-02-05T03:59:08.572Z,99.90
2019-02-05T04:01:42.598Z,99.90
2019-02-05T04:04:16.711Z,99.90
2019-02-05T04:09:27.341Z,99.90
2019-02-05T04:12:01.747Z,99.90
2019-02-05T04:14:36.014Z,99.90
2019-02-05T04:17:16.149Z,99.90
2019-02-05T04:19:50.333Z,99.90
2019-02-05T04:22:24.394Z,99.90
2019-02-05T04:25:04.820Z,99.90
2019-02-05T04:27:45.093Z,99.90
2019-02-05T04:30:15.037Z,99.90
2019-02-05T04:32:49.066Z,99.90
2019-02-05T04:35:23.158Z,99.90
2019-02-05T04:37:57.708Z,99.90
2019-02-05T04:40:31.794Z,99.90
2019-02-05T04:45:50.832Z,99.90
2019-02-05T04:48:25.256Z,99.90
2019-02-05T04:50:59.717Z,99.90
2019-02-05T04:53:33.763Z,99.90
2019-02-05T04:56:07.812Z,99.90
2019-02-05T04:58:42.115Z,99.90
2019-02-05T05:03:55.890Z,99.90
2019-02-05T05:06:29.937Z,99.90
2019-02-05T05:09:04.736Z,99.90
2019-02-05T05:11:53.617Z,99.90
2019-02-05T05:14:23.203Z,99.90
2019-02-05T05:16:54.259Z,99.90
2019-02-05T05:19:24.567Z,99.90
2019-02-05T05:21:54.783Z,99.90
2019-02-05T05:24:26.191Z,99.90
2019-02-05T05:26:55.923Z,99.90
2019-02-05T05:29:25.650Z,99.90
2019-02-05T05:31:55.523Z,99.90
2019-02-05T05:34:25.487Z,99.90
2019-02-05T05:39:34.558Z,99.90
2019-02-05T05:42:04.696Z,99.90
2019-02-05T05:44:34.306Z,99.90
2019-02-05T05:47:04.743Z,99.90
2019-02-05T05:49:34.370Z,99.90
2019-02-05T05:52:04.111Z,99.90
2019-02-05T05:54:33.913Z,99.90
2019-02-05T05:57:03.498Z,99.90
2019-02-05T05:59:33.088Z,99.90
2019-02-05T06:02:03.073Z,99.90
2019-02-05T06:04:32.867Z,99.90
2019-02-05T06:07:02.462Z,99.90
2019-02-05T06:09:32.139Z,99.90
2019-02-05T06:12:01.711Z,99.90
2019-02-05T06:14:31.305Z,99.90
2019-02-05T06:17:00.919Z,99.90
2019-02-05T06:19:30.713Z,99.90
2019-02-05T06:22:09.017Z,99.90
2019-02-05T06:24:38.634Z,99.90
2019-02-05T06:27:08.369Z,99.90
2019-02-05T06:29:38.223Z,99.90
2019-02-05T06:32:08.089Z,99.90
2019-02-05T06:34:37.737Z,99.90
2019-02-05T06:37:07.667Z,99.90
2019-02-05T06:39:37.243Z,99.90
2019-02-05T06:42:06.955Z,99.90
2019-02-05T06:44:36.609Z,99.90
2019-02-05T06:47:07.815Z,99.90
2019-02-05T06:49:37.492Z,99.90
2019-02-05T06:52:07.374Z,99.90
2019-02-05T06:54:36.938Z,99.90
2019-02-05T06:57:06.877Z,99.90
2019-02-05T06:59:36.474Z,99.90
2019-02-05T07:02:08.653Z,99.90
2019-02-05T07:04:38.523Z,99.90
2019-02-05T07:07:08.452Z,99.90
2019-02-05T07:09:38.367Z,99.90
2019-02-05T07:12:08.026Z,99.90
2019-02-05T07:14:37.628Z,99.90
2019-02-05T07:17:09.623Z,99.90
2019-02-05T07:19:39.211Z,99.90
2019-02-05T07:22:09.113Z,99.90
2019-02-05T07:24:38.753Z,99.90
2019-02-05T07:27:08.342Z,99.90
2019-02-05T07:29:40.700Z,99.90
2019-02-05T07:32:11.219Z,99.90
2019-02-05T07:34:40.795Z,99.90
2019-02-05T07:37:10.562Z,99.90
2019-02-05T07:39:40.315Z,99.90
2019-02-05T07:42:10.285Z,99.90
2019-02-05T07:44:40.219Z,99.90
2019-02-05T07:47:10.010Z,99.90
2019-02-05T07:49:39.949Z,99.90
2019-02-05T07:52:09.595Z,99.90
2019-02-05T07:54:39.228Z,99.90
2019-02-05T07:57:09.074Z,99.90
2019-02-05T07:59:38.870Z,99.90
2019-02-05T08:02:08.658Z,99.90
2019-02-05T08:04:38.231Z,99.90
2019-02-05T08:07:07.905Z,91.70
2019-02-05T08:09:37.608Z,69.60
2019-02-05T08:12:07.235Z,56.90
2019-02-05T08:14:36.918Z,50.30
2019-02-05T08:17:06.474Z,62.30
2019-02-05T08:19:36.114Z,57.70
2019-02-05T08:22:05.983Z,50.90
2019-02-05T08:24:36.062Z,53.10
2019-02-05T08:27:05.921Z,57.30
2019-02-05T08:29:36.195Z,58.30
2019-02-05T08:32:06.108Z,57.20
2019-02-05T08:34:35.852Z,61.30
2019-02-05T08:37:05.960Z,71.20
2019-02-05T08:39:35.828Z,82.50
2019-02-05T08:42:05.963Z,68.80
2019-02-05T08:44:35.611Z,52.00
2019-02-05T08:47:05.231Z,46.30
2019-02-05T08:49:34.933Z,41.50
2019-02-05T08:52:04.661Z,40.80
2019-02-05T08:54:34.236Z,45.80
2019-02-05T08:57:04.221Z,45.00
2019-02-05T08:59:33.972Z,44.90
2019-02-05T09:02:03.931Z,42.80
2019-02-05T09:04:33.603Z,41.70
2019-02-05T09:07:03.220Z,37.90
2019-02-05T09:09:32.872Z,38.40
2019-02-05T09:12:03.128Z,39.10
2019-02-05T09:14:32.803Z,38.60
2019-02-05T09:17:02.433Z,36.30
2019-02-05T09:19:32.164Z,36.40
2019-02-05T09:22:01.835Z,37.70
2019-02-05T09:24:37.606Z,36.60
2019-02-05T09:27:09.306Z,35.30
2019-02-05T09:29:38.932Z,32.90
2019-02-05T09:32:11.257Z,31.70
2019-02-05T09:34:40.959Z,31.10
2019-02-05T09:37:10.601Z,32.90
2019-02-05T09:39:40.228Z,33.90
2019-02-05T09:42:10.288Z,32.00
2019-02-05T09:44:39.912Z,30.80
2019-02-05T09:47:09.693Z,31.40
2019-02-05T09:49:41.031Z,30.00
2019-02-05T09:52:16.386Z,31.10
2019-02-05T09:54:45.992Z,31.10
2019-02-05T09:57:15.860Z,31.80
2019-02-05T09:59:45.868Z,31.90
2019-02-05T10:02:15.519Z,31.20
2019-02-05T10:04:45.168Z,31.60
2019-02-05T10:07:14.793Z,30.30
2019-02-05T10:09:44.409Z,31.90
2019-02-05T10:12:14.485Z,31.20
2019-02-05T10:14:44.110Z,30.90
2019-02-05T10:17:13.766Z,30.10
2019-02-05T10:19:43.528Z,31.40
2019-02-05T10:22:13.360Z,30.00
2019-02-05T10:24:43.160Z,30.10
2019-02-05T10:27:12.923Z,31.30
2019-02-05T10:29:42.544Z,30.60
2019-02-05T10:32:20.279Z,31.00
2019-02-05T10:34:49.950Z,30.50
2019-02-05T10:37:22.527Z,29.70
2019-02-05T10:39:52.148Z,29.30
2019-02-05T10:42:21.854Z,28.60
2019-02-05T10:45:02.055Z,30.30
2019-02-05T10:47:31.621Z,31.10
2019-02-05T10:50:01.213Z,31.60
2019-02-05T10:52:50.389Z,30.00
2019-02-05T10:55:22.474Z,29.50
2019-02-05T10:57:54.669Z,30.40
2019-02-05T11:00:28.279Z,33.20
2019-02-05T11:03:00.765Z,34.60
2019-02-05T11:05:32.381Z,35.90
2019-02-05T11:08:02.231Z,35.80
2019-02-05T11:10:31.916Z,34.10
2019-02-05T11:13:01.711Z,34.70
2019-02-05T11:15:33.430Z,34.50
2019-02-05T11:18:06.936Z,35.10
2019-02-05T11:20:36.801Z,34.80
2019-02-05T11:23:06.895Z,33.60
2019-02-05T11:25:36.907Z,35.70
2019-02-05T11:28:06.715Z,35.00
2019-02-05T11:30:40.566Z,34.10
2019-02-05T11:33:10.813Z,35.60
2019-02-05T11:35:40.564Z,35.70
2019-02-05T11:38:11.063Z,36.30
2019-02-05T11:40:41.756Z,37.10
2019-02-05T11:43:11.462Z,37.20
2019-02-05T11:45:41.538Z,36.60
2019-02-05T11:48:15.244Z,35.60
2019-02-05T11:50:45.131Z,35.20
2019-02-05T11:53:14.940Z,35.30
2019-02-05T11:55:44.822Z,34.50
2019-02-05T11:58:14.759Z,32.50
2019-02-05T12:00:46.771Z,33.40
2019-02-05T12:03:17.539Z,33.00
2019-02-05T12:05:48.715Z,31.90
2019-02-05T12:08:18.905Z,34.10
2019-02-05T12:10:48.667Z,33.80
2019-02-05T12:13:18.239Z,34.70
2019-02-05T12:15:49.500Z,32.70
2019-02-05T12:18:19.379Z,33.80
2019-02-05T12:20:49.260Z,36.70
2019-02-05T12:23:19.182Z,35.40
2019-02-05T12:25:48.920Z,36.50
2019-02-05T12:28:18.506Z,36.90
2019-02-05T12:30:48.889Z,37.40
2019-02-05T12:33:18.517Z,36.70
2019-02-05T12:35:48.657Z,36.30
2019-02-05T12:38:18.555Z,36.20
2019-02-05T12:40:48.483Z,35.80
2019-02-05T12:43:18.221Z,38.10
2019-02-05T12:45:48.491Z,34.50
2019-02-05T12:48:18.095Z,35.40
2019-02-05T12:50:48.303Z,34.90
2019-02-05T12:53:18.010Z,37.30
2019-02-05T12:55:47.711Z,37.40
2019-02-05T12:58:17.399Z,38.50
2019-02-05T13:00:57.421Z,40.40
2019-02-05T13:03:21.373Z,39.40
2019-02-05T13:05:51.887Z,40.20
2019-02-05T13:08:21.802Z,40.50
2019-02-05T13:10:53.324Z,41.20
2019-02-05T13:13:23.443Z,40.20
2019-02-05T13:15:53.250Z,42.00
2019-02-05T13:18:23.331Z,41.80
2019-02-05T13:20:52.957Z,44.40
2019-02-05T13:23:24.118Z,42.60
2019-02-05T13:25:55.403Z,45.40
2019-02-05T13:28:25.095Z,44.70
2019-02-05T13:30:54.929Z,44.80
2019-02-05T13:33:24.778Z,46.40
2019-02-05T13:35:55.984Z,51.00
2019-02-05T13:38:25.762Z,55.10
2019-02-05T13:40:56.825Z,51.10
2019-02-05T13:43:26.560Z,51.30
2019-02-05T13:45:56.790Z,58.60
2019-02-05T13:48:27.838Z,65.60
2019-02-05T13:50:58.914Z,66.20
2019-02-05T13:53:30.417Z,69.40
2019-02-05T13:56:00.056Z,70.40
2019-02-05T13:58:30.094Z,82.00
2019-02-05T14:00:59.970Z,73.00
2019-02-05T14:03:29.591Z,74.60
2019-02-05T14:05:59.211Z,69.70
2019-02-05T14:08:28.987Z,72.00
2019-02-05T14:10:58.618Z,78.20
2019-02-05T14:13:28.782Z,77.40
2019-02-05T14:15:58.777Z,80.60
2019-02-05T14:18:29.883Z,79.90
2019-02-05T14:20:59.492Z,90.00
2019-02-05T14:23:29.140Z,94.80
2019-02-05T14:25:59.731Z,94.60
2019-02-05T14:28:29.662Z,90.90
2019-02-05T14:30:59.639Z,86.80
2019-02-05T14:33:29.433Z,80.20
2019-02-05T14:35:59.284Z,84.20
2019-02-05T14:38:29.770Z,82.40
2019-02-05T14:40:59.908Z,85.50
2019-02-05T14:43:29.603Z,83.70
2019-02-05T14:46:01.098Z,78.70
2019-02-05T14:48:30.690Z,80.90
2019-02-05T14:51:00.306Z,83.40
2019-02-05T14:53:29.993Z,92.90
2019-02-05T14:55:59.566Z,91.80
2019-02-05T14:58:29.227Z,97.10
2019-02-05T15:00:59.122Z,97.80
2019-02-05T15:03:28.833Z,99.90
2019-02-05T15:05:58.584Z,93.80
2019-02-05T15:08:28.420Z,93.20
2019-02-05T15:10:58.419Z,98.50
2019-02-05T15:13:27.970Z,99.90
2019-02-05T15:15:57.571Z,99.90
2019-02-05T15:18:27.339Z,99.90
2019-02-05T15:20:57.291Z,99.90
2019-02-05T15:23:27.024Z,99.30
2019-02-05T15:25:57.156Z,98.60
2019-02-05T15:28:27.021Z,99.90
2019-02-05T15:30:56.680Z,99.90
2019-02-05T15:33:27.885Z,99.60
2019-02-05T15:35:59.300Z,99.90
2019-02-05T15:38:29.534Z,99.90
2019-02-05T15:40:59.717Z,99.90
2019-02-05T15:43:29.481Z,99.50
2019-02-05T15:45:59.287Z,94.50
2019-02-05T15:48:29.064Z,96.90
2019-02-05T15:50:58.672Z,97.20
2019-02-05T15:53:28.385Z,95.40
2019-02-05T15:55:58.358Z,98.30
2019-02-05T15:58:28.102Z,96.80
2019-02-05T16:00:57.882Z,99.90
2019-02-05T16:03:27.472Z,99.90
2019-02-05T16:05:58.555Z,99.90
2019-02-05T16:08:28.601Z,99.90
2019-02-05T16:10:58.208Z,99.90
2019-02-05T16:13:27.790Z,99.90
2019-02-05T16:15:57.403Z,99.90
2019-02-05T16:18:46.255Z,99.90
2019-02-05T16:21:35.548Z,99.90
2019-02-05T16:24:05.623Z,99.90
2019-02-05T16:26:35.204Z,99.90
2019-02-05T16:29:06.050Z,99.90
2019-02-05T16:31:35.719Z,99.90
2019-02-05T16:34:05.570Z,99.90
2019-02-05T16:36:35.384Z,99.90
2019-02-05T16:39:09.540Z,99.90
2019-02-05T16:41:58.459Z,99.90
2019-02-05T16:44:29.506Z,99.90
2019-02-05T16:46:59.216Z,99.90
2019-02-05T16:49:28.882Z,99.90
2019-02-05T16:51:58.831Z,99.90
2019-02-05T16:54:28.400Z,99.90
2019-02-05T16:56:57.993Z,99.90
2019-02-05T16:59:27.749Z,99.90
2019-02-05T17:01:58.848Z,99.90
2019-02-05T17:04:28.475Z,99.90
2019-02-05T17:06:58.196Z,99.90
2019-02-05T17:09:27.795Z,99.90
2019-02-05T17:11:57.572Z,99.90
2019-02-05T17:14:27.189Z,99.90
2019-02-05T17:17:16.103Z,99.90
2019-02-05T17:19:47.154Z,99.90
2019-02-05T17:22:18.570Z,99.90
2019-02-05T17:25:10.797Z,99.90
2019-02-05T17:28:02.116Z,99.90
2019-02-05T17:30:36.003Z,99.90
2019-02-05T17:33:06.786Z,99.90
2019-02-05T17:35:36.407Z,99.90
2019-02-05T17:38:08.884Z,99.90
2019-02-05T17:40:38.814Z,99.90
2019-02-05T17:43:08.666Z,99.90
2019-02-05T17:45:41.758Z,99.90
2019-02-05T17:48:15.461Z,99.90
2019-02-05T17:50:48.481Z,99.90
2019-02-05T17:53:18.304Z,99.90
2019-02-05T17:55:47.868Z,99.90
2019-02-05T17:58:18.026Z,99.90
2019-02-05T18:00:49.519Z,99.90
2019-02-05T18:03:19.595Z,99.90
2019-02-05T18:05:49.268Z,99.90
2019-02-05T18:08:19.005Z,99.90
2019-02-05T18:10:48.630Z,99.90
2019-02-05T18:13:18.373Z,99.90
2019-02-05T18:16:09.244Z,99.90
2019-02-05T18:18:38.840Z,99.90
2019-02-05T18:21:08.389Z,99.90
2019-02-05T18:23:38.717Z,99.90
2019-02-05T18:26:08.404Z,99.90
2019-02-05T18:28:38.797Z,99.90
2019-02-05T18:31:08.988Z,99.90
2019-02-05T18:33:38.636Z,99.90
2019-02-05T18:36:08.428Z,99.90
2019-02-05T18:38:39.387Z,99.90
2019-02-05T18:41:09.458Z,99.90
2019-02-05T18:43:39.334Z,99.90
2019-02-05T18:46:09.223Z,99.90
2019-02-05T18:48:38.884Z,99.90
2019-02-05T18:51:08.469Z,99.90
2019-02-05T18:53:38.072Z,99.90
2019-02-05T18:56:07.896Z,99.90
2019-02-05T18:58:37.474Z,99.90
2019-02-05T19:01:07.565Z,99.90
2019-02-05T19:03:37.245Z,99.90
2019-02-05T19:06:06.893Z,99.90
2019-02-05T19:08:36.456Z,99.90
2019-02-05T19:11:08.528Z,99.90
2019-02-05T19:13:38.113Z,99.90
2019-02-05T19:16:08.216Z,99.90
2019-02-05T19:18:57.110Z,99.90
2019-02-05T19:21:26.683Z,99.90
2019-02-05T19:23:57.828Z,99.90
2019-02-05T19:26:47.334Z,99.90
2019-02-05T19:29:36.174Z,99.90
2019-02-05T19:32:06.234Z,99.90
2019-02-05T19:34:35.780Z,99.90
2019-02-05T19:37:05.607Z,99.90
2019-02-05T19:39:35.217Z,99.90
2019-02-05T19:42:05.119Z,99.90
2019-02-05T19:44:39.024Z,99.90
2019-02-05T19:47:09.006Z,99.90
2019-02-05T19:49:38.562Z,99.90
2019-02-05T19:52:27.864Z,99.90
2019-02-05T19:54:57.642Z,99.90
2019-02-05T19:57:27.267Z,99.90
2019-02-05T19:59:57.151Z,99.90
2019-02-05T20:02:26.715Z,99.90
2019-02-05T20:04:56.301Z,99.90
2019-02-05T20:07:25.905Z,99.90
2019-02-05T20:09:55.452Z,99.90
2019-02-05T20:12:44.798Z,99.90
2019-02-05T20:15:19.666Z,99.90
2019-02-05T20:17:48.528Z,99.90
2019-02-05T20:20:20.607Z,99.90
2019-02-05T20:22:51.932Z,99.90
2019-02-05T20:25:22.997Z,99.90
2019-02-05T20:27:52.839Z,99.90
2019-02-05T20:30:25.039Z,99.90
2019-02-05T20:32:55.633Z,99.90
2019-02-05T20:35:25.330Z,99.90
2019-02-05T20:37:55.194Z,99.90
2019-02-05T20:40:27.052Z,99.90
2019-02-05T20:42:56.883Z,99.90
2019-02-05T20:45:26.532Z,99.90
2019-02-05T20:47:56.233Z,99.90
2019-02-05T20:50:25.963Z,99.90
2019-02-05T20:52:55.920Z,99.90
2019-02-05T20:55:26.649Z,99.90
2019-02-05T20:57:56.391Z,99.90
2019-02-05T21:00:31.792Z,99.90
2019-02-05T21:03:04.633Z,99.90
2019-02-05T21:05:37.160Z,99.90
2019-02-05T21:08:07.328Z,99.90
2019-02-05T21:10:36.912Z,99.90
2019-02-05T21:13:06.868Z,99.90
2019-02-05T21:15:36.521Z,99.90
2019-02-05T21:18:12.119Z,99.90
2019-02-05T21:20:42.078Z,99.90
2019-02-05T21:23:11.657Z,99.90
2019-02-05T21:25:41.260Z,99.90
2019-02-05T21:28:10.972Z,99.90
2019-02-05T21:30:40.528Z,99.90
2019-02-05T21:33:10.572Z,99.90
2019-02-05T21:35:40.544Z,99.90
2019-02-05T21:38:10.172Z,99.90
2019-02-05T21:40:39.833Z,99.90
2019-02-05T21:43:09.593Z,99.90
2019-02-05T21:45:39.173Z,99.90
2019-02-05T21:48:08.748Z,99.90
2019-02-05T21:50:38.724Z,99.90
2019-02-05T21:53:08.299Z,99.90
2019-02-05T21:55:57.175Z,99.90
2019-02-05T21:58:26.765Z,99.90
2019-02-05T22:01:15.697Z,99.90
2019-02-05T22:03:45.232Z,99.90
2019-02-05T22:06:14.917Z,99.90
2019-02-05T22:08:44.610Z,99.90
2019-02-05T22:11:14.156Z,99.90
2019-02-05T22:13:43.601Z,99.90
2019-02-05T22:16:13.373Z,99.90
2019-02-05T22:18:43.484Z,99.90
2019-02-05T22:21:13.686Z,99.90
2019-02-05T22:23:43.318Z,99.90
2019-02-05T22:26:12.903Z,99.90
2019-02-05T22:28:42.490Z,99.90
2019-02-05T22:31:13.554Z,99.90
2019-02-05T22:33:43.298Z,99.90
2019-02-05T22:36:13.205Z,99.90
2019-02-05T22:39:02.099Z,99.90
2019-02-05T22:41:31.785Z,99.90
2019-02-05T22:44:01.438Z,99.90
2019-02-05T22:46:31.033Z,99.90
2019-02-05T22:49:00.707Z,99.90
2019-02-05T22:51:50.041Z,99.90
2019-02-05T22:54:19.647Z,99.90
2019-02-05T22:56:49.493Z,99.90
2019-02-05T22:59:19.602Z,99.90
2019-02-05T23:01:50.332Z,99.90
2019-02-05T23:04:50.590Z,99.90
2019-02-05T23:07:31.465Z,99.90
2019-02-05T23:10:05.767Z,99.90
2019-02-05T23:12:42.235Z,99.90
2019-02-05T23:15:16.536Z,99.90
2019-02-05T23:17:46.285Z,99.90
2019-02-05T23:20:18.779Z,99.90
2019-02-05T23:22:48.719Z,99.90
2019-02-05T23:25:18.576Z,99.90
2019-02-05T23:27:48.392Z,99.90
2019-02-05T23:30:21.898Z,99.90
2019-02-05T23:32:51.506Z,99.90
2019-02-05T23:35:21.724Z,99.90
2019-02-05T23:37:51.479Z,99.90
2019-02-05T23:40:24.306Z,99.90
2019-02-05T23:42:54.401Z,99.90
2019-02-05T23:45:24.149Z,99.90
2019-02-05T23:47:53.701Z,99.90
2019-02-05T23:50:23.880Z,99.90
2019-02-05T23:52:53.557Z,99.90
2019-02-05T23:55:23.160Z,99.90
2019-02-05T23:57:52.733Z,99.90
